Time;durP1;ratioP1;P1;durP2;ratioP2;P2;SDS_P1;SDS_P2;PMS_P1;PMS_P2;Temp;Humidity;BMP_temperature;BMP_pressure;BME280_temperature;BME280_humidity;BME280_pressure;Samples;Min_cycle;Max_cycle;Signal;HPM_P1;HPM_P2
2023/04/17 00:02:51;;;;;;;2.92;1.58;;;;;;;13.18;69.97;99549.75;6382348;27;20453;-76
2023/04/17 00:05:52;;;;;;;2.80;1.85;;;;;;;13.18;69.58;99554.16;6358931;27;20043;-76
2023/04/17 00:08:53;;;;;;;3.60;1.73;;;;;;;13.04;69.83;99553.47;6357679;27;20134;-76
2023/04/17 00:11:56;;;;;;;2.47;1.88;;;;;;;13.06;69.80;99543.72;6368612;27;20043;-76
2023/04/17 00:14:59;;;;;;;3.17;1.48;;;;;;;13.06;70.59;99545.50;6375072;27;20047;-76
2023/04/17 00:18:00;;;;;;;1.92;1.25;;;;;;;13.13;69.96;99545.84;6373658;27;20060;-76
2023/04/17 00:21:05;;;;;;;3.38;1.52;;;;;;;13.06;70.51;99555.97;6359900;27;20443;-76
2023/04/17 00:24:06;;;;;;;1.65;1.50;;;;;;;13.01;69.80;99548.50;6358157;27;20466;-76
2023/04/17 00:27:07;;;;;;;3.97;1.50;;;;;;;12.89;70.28;99549.47;6362380;27;20057;-76
2023/04/17 00:30:08;;;;;;;3.35;1.52;;;;;;;12.92;69.98;99549.19;6375741;27;20051;-76
2023/04/17 00:33:09;;;;;;;3.03;1.50;;;;;;;12.91;70.57;99544.94;6375919;27;20047;-76
2023/04/17 00:36:14;;;;;;;1.48;1.38;;;;;;;12.92;70.54;99545.75;6356916;27;20104;-76
2023/04/17 00:39:15;;;;;;;2.88;1.63;;;;;;;12.91;70.90;99550.19;6390713;27;20552;-76
2023/04/17 00:42:16;;;;;;;1.52;1.13;;;;;;;12.95;70.77;99548.13;6378641;27;20051;-76
2023/04/17 00:45:16;;;;;;;2.95;1.63;;;;;;;12.85;71.24;99543.63;6363012;27;20412;-76
2023/04/17 00:48:22;;;;;;;2.30;1.42;;;;;;;12.85;70.94;99546.25;6362010;27;20043;-76
2023/04/17 00:51:24;;;;;;;1.92;1.48;;;;;;;12.87;71.62;99544.34;6380423;27;20409;-76
2023/04/17 00:54:27;;;;;;;3.40;1.42;;;;;;;12.88;72.25;99548.59;6386633;27;20042;-76
2023/04/17 00:57:28;;;;;;;3.10;1.70;;;;;;;12.80;72.69;99552.78;6385662;27;20054;-76
2023/04/17 01:00:34;;;;;;;1.33;1.23;;;;;;;12.74;72.56;99554.09;6374222;27;20061;-76
2023/04/17 01:03:34;;;;;;;2.05;1.52;;;;;;;12.58;74.35;99548.38;6356792;27;20043;-76
2023/04/17 01:06:38;;;;;;;2.22;1.40;;;;;;;12.60;74.10;99555.19;6374906;27;20133;-76
2023/04/17 01:09:39;;;;;;;1.60;1.05;;;;;;;12.57;74.36;99551.97;6369590;27;20719;-76
2023/04/17 01:12:42;;;;;;;4.60;1.30;;;;;;;12.59;74.12;99552.66;6354142;27;20047;-76
2023/04/17 01:15:43;;;;;;;3.15;1.30;;;;;;;12.57;74.16;99547.56;6375887;27;20409;-76
2023/04/17 01:18:47;;;;;;;2.13;1.40;;;;;;;12.52;75.11;99549.72;6373780;27;20047;-76
2023/04/17 01:21:47;;;;;;;3.20;1.38;;;;;;;12.53;75.02;99553.16;6354542;27;20501;-76
2023/04/17 01:24:48;;;;;;;2.90;1.50;;;;;;;12.42;75.57;99552.19;6357401;27;20058;-76
2023/04/17 01:27:55;;;;;;;4.55;1.40;;;;;;;12.49;75.63;99558.59;6384177;27;20043;-76
2023/04/17 01:30:55;;;;;;;2.03;1.40;;;;;;;12.36;76.34;99550.03;6395003;27;20043;-76
2023/04/17 01:33:56;;;;;;;1.58;1.38;;;;;;;12.30;77.06;99555.75;6360857;27;20055;-76
2023/04/17 01:36:59;;;;;;;1.83;1.05;;;;;;;12.29;77.78;99554.06;6380892;27;20428;-76
2023/04/17 01:40:00;;;;;;;2.22;1.38;;;;;;;12.29;77.89;99551.44;6377520;27;20054;-76
2023/04/17 01:43:01;;;;;;;1.52;1.15;;;;;;;12.29;78.71;99547.06;6370526;27;20047;-76
2023/04/17 01:46:02;;;;;;;1.65;1.27;;;;;;;12.33;79.20;99545.03;6376440;27;20099;-76
2023/04/17 01:49:02;;;;;;;1.38;1.27;;;;;;;12.38;78.51;99547.31;6354496;27;20043;-76
2023/04/17 01:52:04;;;;;;;2.45;1.15;;;;;;;12.42;79.10;99549.56;6354970;27;20088;-76
2023/04/17 01:55:05;;;;;;;1.80;0.90;;;;;;;12.36;78.75;99551.84;6356063;27;20046;-76
2023/04/17 01:58:06;;;;;;;1.90;1.20;;;;;;;12.40;79.36;99551.47;6387739;27;20271;-76
2023/04/17 02:01:07;;;;;;;2.15;1.48;;;;;;;12.41;79.86;99558.34;6379147;27;20103;-76
2023/04/17 02:04:07;;;;;;;1.50;1.10;;;;;;;12.30;80.47;99553.13;6353967;27;20054;-76
2023/04/17 02:07:08;;;;;;;3.22;1.40;;;;;;;12.28;80.69;99560.25;6397068;27;20051;-76
2023/04/17 02:10:09;;;;;;;4.13;1.75;;;;;;;12.33;80.80;99562.50;6380534;27;20051;-76
2023/04/17 02:13:10;;;;;;;1.98;1.20;;;;;;;12.27;80.82;99555.97;6393503;27;20047;-76
2023/04/17 02:16:11;;;;;;;1.20;0.93;;;;;;;12.30;80.91;99558.34;6355827;27;20043;-76
2023/04/17 02:19:12;;;;;;;3.97;1.08;;;;;;;12.36;81.07;99559.69;6361800;27;20583;-76
2023/04/17 02:22:13;;;;;;;1.40;1.08;;;;;;;12.22;81.18;99564.16;6398977;27;20042;-76
2023/04/17 02:25:14;;;;;;;1.70;1.10;;;;;;;12.21;82.02;99561.66;6358094;27;20047;-76
2023/04/17 02:28:15;;;;;;;1.73;1.23;;;;;;;12.14;82.22;99563.06;6394667;27;20050;-76
2023/04/17 02:31:16;;;;;;;2.83;1.50;;;;;;;12.13;83.16;99561.41;6372157;27;20275;-76
2023/04/17 02:34:16;;;;;;;1.88;1.02;;;;;;;12.02;83.02;99556.97;6380246;27;20057;-76
2023/04/17 02:37:17;;;;;;;2.38;1.20;;;;;;;12.06;83.59;99558.41;6397126;27;20051;-76
2023/04/17 02:40:18;;;;;;;0.85;0.82;;;;;;;12.15;83.07;99559.50;6372617;27;20095;-76
2023/04/17 02:43:19;;;;;;;2.25;1.20;;;;;;;12.16;83.16;99556.78;6378886;27;20076;-76
2023/04/17 02:46:19;;;;;;;1.58;1.20;;;;;;;12.17;83.50;99562.84;6381297;27;20503;-76
2023/04/17 02:49:20;;;;;;;1.73;1.25;;;;;;;12.07;84.88;99555.69;6362166;27;20403;-72
2023/04/17 02:52:22;;;;;;;2.63;1.30;;;;;;;12.03;86.25;99564.72;6379797;27;20536;-73
2023/04/17 02:55:23;;;;;;;2.33;1.63;;;;;;;12.10;85.66;99552.00;6396200;27;20047;-72
2023/04/17 02:58:24;;;;;;;3.05;1.30;;;;;;;11.97;86.47;99559.94;6379072;27;20094;-72
2023/04/17 03:01:25;;;;;;;0.90;0.90;;;;;;;11.94;87.57;99561.94;6366858;27;20047;-72
2023/04/17 03:04:29;;;;;;;2.47;1.55;;;;;;;11.84;88.22;99554.78;6359513;27;20045;-72
2023/04/17 03:07:30;;;;;;;2.55;1.20;;;;;;;11.97;87.63;99553.88;6377944;27;20047;-72
2023/04/17 03:10:31;;;;;;;1.58;1.17;;;;;;;11.90;87.67;99550.88;6388709;27;20052;-72
2023/04/17 03:13:36;;;;;;;1.30;1.20;;;;;;;11.79;88.89;99550.81;6378505;27;20058;-73
2023/04/17 03:16:42;;;;;;;1.63;1.13;;;;;;;11.80;88.83;99555.94;6362355;27;20046;-72
2023/04/17 03:19:43;;;;;;;2.00;1.38;;;;;;;11.70;89.50;99553.16;6367290;27;20054;-76
2023/04/17 03:22:46;;;;;;;1.75;1.20;;;;;;;11.80;89.44;99557.72;6380275;27;20637;-72
2023/04/17 03:25:47;;;;;;;1.90;1.15;;;;;;;11.71;90.01;99559.22;6385901;27;20107;-72
2023/04/17 03:28:48;;;;;;;1.48;1.30;;;;;;;11.66;90.70;99556.97;6364328;27;20070;-71
2023/04/17 03:31:51;;;;;;;1.75;1.35;;;;;;;11.65;91.33;99557.06;6385897;27;20555;-72
2023/04/17 03:34:52;;;;;;;2.67;1.25;;;;;;;11.64;91.34;99564.06;6384221;27;20042;-72
2023/04/17 03:37:52;;;;;;;1.20;1.10;;;;;;;11.56;92.12;99563.78;6373997;27;20137;-76
2023/04/17 03:40:53;;;;;;;2.30;1.52;;;;;;;11.45;92.96;99572.41;6386951;27;20043;-76
2023/04/17 03:43:54;;;;;;;1.92;1.45;;;;;;;11.57;92.61;99575.06;6377760;27;20053;-76
2023/04/17 03:47:00;;;;;;;5.38;1.73;;;;;;;11.52;93.50;99574.59;6378261;27;20043;-76
2023/04/17 03:50:00;;;;;;;3.67;1.65;;;;;;;11.47;93.94;99582.78;6362238;27;20070;-72
2023/04/17 03:53:01;;;;;;;1.88;1.40;;;;;;;11.52;93.54;99577.19;6370341;27;20043;-76
2023/04/17 03:56:02;;;;;;;2.03;1.30;;;;;;;11.44;94.29;99588.19;6392688;27;20057;-76
2023/04/17 03:59:03;;;;;;;2.42;1.70;;;;;;;11.50;94.10;99588.59;6381562;27;20051;-76
2023/04/17 04:02:04;;;;;;;2.95;1.48;;;;;;;11.40;94.43;99594.59;6377988;27;20179;-72
2023/04/17 04:05:06;;;;;;;3.55;1.60;;;;;;;11.24;95.46;99584.41;6377999;27;20051;-76
2023/04/17 04:08:07;;;;;;;2.33;1.50;;;;;;;11.40;94.25;99594.59;6387601;27;20105;-73
2023/04/17 04:11:10;;;;;;;2.38;1.52;;;;;;;11.29;95.02;99592.75;6401877;27;20035;-73
2023/04/17 04:14:11;;;;;;;3.15;1.58;;;;;;;11.38;94.71;99599.91;6401103;27;20548;-73
2023/04/17 04:17:14;;;;;;;2.70;1.77;;;;;;;11.37;93.72;99600.03;6378723;27;20047;-73
2023/04/17 04:20:15;;;;;;;2.20;1.63;;;;;;;11.40;92.54;99605.03;6382741;27;20468;-72
2023/04/17 04:23:16;;;;;;;3.85;2.15;;;;;;;11.48;91.24;99615.78;6368859;27;20057;-73
2023/04/17 04:26:16;;;;;;;2.53;1.67;;;;;;;11.43;91.59;99613.50;6401674;27;20050;-73
2023/04/17 04:29:17;;;;;;;3.53;1.75;;;;;;;11.42;90.65;99624.03;6381062;27;20142;-72
2023/04/17 04:32:18;;;;;;;3.40;1.92;;;;;;;11.40;90.60;99612.88;6400614;27;20073;-73
2023/04/17 04:35:19;;;;;;;1.95;1.55;;;;;;;11.45;89.18;99609.00;6395054;27;20047;-76
2023/04/17 04:38:28;;;;;;;3.25;1.45;;;;;;;11.47;89.66;99614.94;6379889;27;20054;-76
2023/04/17 04:41:32;;;;;;;5.25;1.92;;;;;;;11.48;87.94;99615.78;6401134;27;20047;-76
2023/04/17 04:44:35;;;;;;;1.33;1.20;;;;;;;11.61;87.76;99615.72;6382106;27;20046;-76
2023/04/17 04:47:35;;;;;;;3.35;1.98;;;;;;;11.74;88.48;99608.66;6370960;27;20044;-76
2023/04/17 04:50:36;;;;;;;2.45;1.70;;;;;;;11.63;87.39;99617.28;6382073;27;20046;-76
2023/04/17 04:53:37;;;;;;;2.92;1.55;;;;;;;11.69;88.66;99616.84;6390385;27;20134;-76
2023/04/17 04:56:38;;;;;;;4.28;2.10;;;;;;;11.79;87.72;99618.78;6394452;27;20141;-76
2023/04/17 04:59:42;;;;;;;2.20;1.50;;;;;;;11.85;86.67;99616.53;6381453;27;20119;-76
2023/04/17 05:02:43;;;;;;;3.55;1.95;;;;;;;11.95;86.87;99618.53;6400676;27;20050;-76
2023/04/17 05:05:44;;;;;;;3.10;1.85;;;;;;;11.82;88.44;99619.41;6366398;27;20050;-76
2023/04/17 05:08:45;;;;;;;2.58;1.55;;;;;;;11.77;86.86;99623.28;6356403;27;20092;-76
2023/04/17 05:11:45;;;;;;;3.63;1.73;;;;;;;11.69;88.03;99619.47;6362899;27;20078;-76
2023/04/17 05:14:46;;;;;;;3.80;2.00;;;;;;;11.69;88.57;99629.91;6394241;27;20519;-76
2023/04/17 05:17:49;;;;;;;5.35;2.47;;;;;;;11.68;88.46;99627.41;6394700;27;20074;-76
2023/04/17 05:20:51;;;;;;;1.92;1.63;;;;;;;11.61;89.08;99628.78;6395666;27;20047;-76
2023/04/17 05:23:52;;;;;;;1.65;1.52;;;;;;;11.69;88.48;99635.16;6400124;27;20050;-76
2023/04/17 05:27:01;;;;;;;4.57;1.88;;;;;;;11.62;89.73;99633.91;6382023;27;20051;-76
2023/04/17 05:30:03;;;;;;;3.42;1.75;;;;;;;11.61;90.20;99637.47;6377742;27;20046;-76
2023/04/17 05:33:05;;;;;;;3.15;2.10;;;;;;;11.54;90.80;99638.03;6400052;27;20133;-76
2023/04/17 05:36:06;;;;;;;2.58;1.58;;;;;;;11.67;90.39;99644.03;6380045;27;20050;-74
2023/04/17 05:39:07;;;;;;;4.82;2.05;;;;;;;11.64;91.84;99632.00;6389213;27;20059;-74
2023/04/17 05:42:08;;;;;;;3.15;1.90;;;;;;;11.65;93.36;99636.31;6354534;27;20133;-74
2023/04/17 05:45:16;;;;;;;2.55;1.67;;;;;;;11.58;92.86;99644.69;6373779;27;20534;-76
2023/04/17 05:48:17;;;;;;;3.97;1.92;;;;;;;11.46;94.73;99642.00;6355308;27;20057;-76
2023/04/17 05:51:18;;;;;;;3.15;2.10;;;;;;;11.51;93.68;99646.91;6373298;27;20043;-76
2023/04/17 05:54:19;;;;;;;2.15;1.50;;;;;;;11.47;95.63;99640.25;6373311;27;20043;-76
2023/04/17 05:57:22;;;;;;;3.63;2.35;;;;;;;11.36;97.60;99648.00;6354971;27;20059;-76
2023/04/17 06:00:23;;;;;;;2.58;1.92;;;;;;;11.45;98.00;99648.19;6373045;27;21018;-76
2023/04/17 06:03:25;;;;;;;4.68;1.65;;;;;;;11.42;98.31;99647.56;6354909;27;20058;-76
2023/04/17 06:06:26;;;;;;;4.55;1.83;;;;;;;11.48;99.61;99644.50;6355088;27;20053;-76
2023/04/17 06:09:27;;;;;;;2.30;1.80;;;;;;;11.44;100.00;99661.34;6373057;27;20611;-76
2023/04/17 06:12:38;;;;;;;1.80;1.48;;;;;;;11.52;100.00;99656.41;6356498;27;20518;-77
2023/04/17 06:15:39;;;;;;;2.55;1.48;;;;;;;11.40;100.00;99655.50;6354564;27;20058;-77
2023/04/17 06:18:40;;;;;;;4.00;1.92;;;;;;;11.27;100.00;99659.94;6372765;27;20051;-77
2023/04/17 06:21:41;;;;;;;2.85;2.28;;;;;;;11.26;100.00;99647.78;6354498;27;20078;-77
2023/04/17 06:24:42;;;;;;;2.50;1.73;;;;;;;11.32;100.00;99657.81;6372703;27;20047;-77
2023/04/17 06:27:43;;;;;;;3.40;1.92;;;;;;;11.45;100.00;99652.56;6354346;27;20047;-77
2023/04/17 06:30:43;;;;;;;5.05;2.95;;;;;;;11.37;100.00;99653.13;6372405;27;20504;-77
2023/04/17 06:33:46;;;;;;;3.05;1.60;;;;;;;11.47;100.00;99661.16;6372696;27;20499;-77
2023/04/17 06:36:47;;;;;;;3.50;2.35;;;;;;;11.58;100.00;99668.22;6354010;27;20077;-77
2023/04/17 06:39:48;;;;;;;2.42;1.70;;;;;;;11.48;100.00;99662.78;6354112;27;20065;-77
2023/04/17 06:42:49;;;;;;;3.47;1.95;;;;;;;11.60;100.00;99668.94;6354253;27;20469;-77
2023/04/17 06:45:50;;;;;;;3.63;2.25;;;;;;;11.61;100.00;99657.53;6354373;27;20046;-76
2023/04/17 06:48:56;;;;;;;6.32;2.50;;;;;;;11.98;100.00;99657.50;6354201;27;20050;-76
2023/04/17 06:51:58;;;;;;;2.83;2.00;;;;;;;12.13;99.87;99660.78;6372035;27;20047;-77
2023/04/17 06:54:59;;;;;;;4.00;3.00;;;;;;;12.26;98.51;99669.41;6355770;27;20088;-77
2023/04/17 06:58:00;;;;;;;5.45;2.90;;;;;;;12.37;98.27;99664.19;6394103;27;20050;-76
2023/04/17 07:01:00;;;;;;;3.22;2.10;;;;;;;12.30;95.51;99665.59;6394982;27;20416;-76
2023/04/17 07:04:03;;;;;;;3.63;2.38;;;;;;;12.59;94.88;99680.91;6379398;27;20050;-76
2023/04/17 07:07:03;;;;;;;4.32;2.47;;;;;;;12.65;95.46;99680.44;6398222;27;20050;-76
2023/04/17 07:10:05;;;;;;;4.28;2.20;;;;;;;12.57;94.13;99677.56;6397416;27;20066;-76
2023/04/17 07:13:06;;;;;;;4.05;2.10;;;;;;;12.77;92.82;99682.13;6397933;27;20047;-76
2023/04/17 07:16:07;;;;;;;3.30;2.03;;;;;;;12.80;92.05;99678.44;6397462;27;20484;-76
2023/04/17 07:19:08;;;;;;;6.60;2.10;;;;;;;13.05;93.90;99685.25;6379319;27;20047;-76
2023/04/17 07:22:09;;;;;;;3.05;1.85;;;;;;;12.95;92.53;99671.19;6378983;27;20420;-76
2023/04/17 07:25:10;;;;;;;2.35;1.73;;;;;;;13.25;90.46;99678.47;6378897;27;20390;-76
2023/04/17 07:28:11;;;;;;;4.53;2.22;;;;;;;13.33;89.53;99681.34;6379215;27;20049;-76
2023/04/17 07:31:11;;;;;;;4.32;2.15;;;;;;;13.35;89.63;99682.06;6379001;27;20046;-76
2023/04/17 07:34:12;;;;;;;1.95;1.65;;;;;;;13.44;89.16;99689.19;6397736;27;20511;-77
2023/04/17 07:37:16;;;;;;;3.20;2.10;;;;;;;13.86;85.81;99683.31;6379113;27;20420;-76
2023/04/17 07:40:18;;;;;;;3.33;2.03;;;;;;;13.73;86.59;99670.31;6397312;27;20054;-76
2023/04/17 07:43:19;;;;;;;4.87;1.80;;;;;;;13.85;84.49;99677.19;6378772;27;20051;-76
2023/04/17 07:46:20;;;;;;;3.50;2.13;;;;;;;14.53;82.58;99687.41;6397596;27;20281;-76
2023/04/17 07:49:21;;;;;;;2.35;1.77;;;;;;;14.87;82.69;99688.09;6378959;27;20058;-76
2023/04/17 07:52:24;;;;;;;2.67;2.10;;;;;;;14.85;78.28;99683.94;6397074;27;20428;-76
2023/04/17 07:55:25;;;;;;;4.15;2.10;;;;;;;15.05;78.70;99690.09;6378653;27;20559;-77
2023/04/17 07:58:25;;;;;;;1.40;1.20;;;;;;;15.14;78.53;99693.75;6378704;27;20047;-76
2023/04/17 08:01:26;;;;;;;3.08;1.98;;;;;;;15.54;75.59;99691.09;6396904;27;20492;-76
2023/04/17 08:04:27;;;;;;;3.65;2.13;;;;;;;15.75;73.23;99684.97;6382065;27;20053;-77
2023/04/17 08:07:28;;;;;;;5.47;2.55;;;;;;;15.56;75.22;99693.63;6401831;27;20043;-77
2023/04/17 08:10:29;;;;;;;3.13;2.00;;;;;;;15.42;74.82;99687.78;6401568;27;20053;-76
2023/04/17 08:13:31;;;;;;;2.10;1.77;;;;;;;15.20;75.74;99685.34;6383446;27;20556;-76
2023/04/17 08:16:32;;;;;;;2.20;1.67;;;;;;;15.08;75.62;99690.66;6383326;27;20055;-76
2023/04/17 08:19:33;;;;;;;2.23;1.80;;;;;;;15.36;74.87;99690.09;6383089;27;20267;-76
2023/04/17 08:22:39;;;;;;;2.63;1.92;;;;;;;15.63;75.67;99689.50;6382874;27;20114;-76
2023/04/17 08:25:40;;;;;;;2.83;1.77;;;;;;;15.97;73.12;99689.97;6383003;27;20058;-77
2023/04/17 08:28:43;;;;;;;3.97;1.65;;;;;;;16.55;71.91;99690.94;6383225;27;20055;-76
2023/04/17 08:31:44;;;;;;;2.17;1.58;;;;;;;16.59;68.96;99692.31;6382917;27;20488;-77
2023/04/17 08:34:45;;;;;;;3.65;1.80;;;;;;;16.76;66.71;99690.75;6401453;27;20042;-76
2023/04/17 08:37:46;;;;;;;1.83;1.40;;;;;;;16.84;66.56;99693.53;6400885;27;20093;-76
2023/04/17 08:40:50;;;;;;;2.60;1.30;;;;;;;16.81;66.15;99684.13;6401175;27;20039;-77
2023/04/17 08:43:52;;;;;;;2.47;1.35;;;;;;;17.14;64.07;99689.84;6382241;27;20046;-76
2023/04/17 08:46:58;;;;;;;2.33;1.55;;;;;;;16.47;65.90;99684.59;6400944;27;20117;-77
2023/04/17 08:50:07;;;;;;;1.95;1.50;;;;;;;16.62;67.20;99687.59;6382420;27;20065;-77
2023/04/17 08:53:08;;;;;;;2.08;1.70;;;;;;;16.81;68.87;99681.50;6381921;27;20046;-77
2023/04/17 08:56:09;;;;;;;1.35;1.25;;;;;;;17.21;65.36;99676.91;6400638;27;20511;-77
2023/04/17 08:59:16;;;;;;;3.35;1.55;;;;;;;17.33;63.87;99676.56;6382879;27;20282;-77
2023/04/17 09:02:17;;;;;;;2.05;1.30;;;;;;;17.75;64.24;99690.22;6400284;27;20133;-76
2023/04/17 09:05:20;;;;;;;3.72;1.80;;;;;;;17.80;62.48;99680.06;6400418;27;20115;-75
2023/04/17 09:08:24;;;;;;;1.83;1.45;;;;;;;18.02;63.31;99670.94;6400263;27;20102;-75
2023/04/17 09:11:26;;;;;;;2.78;1.63;;;;;;;18.36;60.60;99673.66;6400471;27;20042;-75
2023/04/17 09:14:30;;;;;;;3.25;1.75;;;;;;;18.55;60.12;99669.19;6400132;27;20046;-75
2023/04/17 09:17:33;;;;;;;1.63;1.27;;;;;;;18.85;59.96;99681.16;6400035;27;20047;-75
2023/04/17 09:20:48;;;;;;;1.52;1.33;;;;;;;18.51;59.85;99677.44;6381692;27;20047;-75
2023/04/17 09:23:54;;;;;;;3.75;1.80;;;;;;;18.80;59.01;99670.22;6399949;27;20046;-75
2023/04/17 09:26:55;;;;;;;2.22;1.58;;;;;;;19.08;58.56;99669.03;6381740;27;20126;-75
2023/04/17 09:30:01;;;;;;;3.58;1.40;;;;;;;18.83;57.38;99668.09;6399798;27;20046;-74
2023/04/17 09:33:04;;;;;;;1.45;1.35;;;;;;;18.73;60.46;99675.25;6399893;27;20047;-75
2023/04/17 09:36:20;;;;;;;2.72;1.75;;;;;;;18.64;58.75;99669.09;6399696;27;20057;-75
2023/04/17 09:39:23;;;;;;;2.70;1.63;;;;;;;19.08;58.71;99670.88;6381418;27;20489;-75
2023/04/17 09:42:27;;;;;;;1.90;1.50;;;;;;;18.93;57.89;99660.06;6399582;27;20157;-75
2023/04/17 09:45:35;;;;;;;3.47;1.58;;;;;;;18.82;58.02;99669.09;6381382;27;20111;-75
2023/04/17 09:48:36;;;;;;;1.30;1.13;;;;;;;18.95;57.12;99666.00;6399500;27;20050;-75
2023/04/17 09:51:37;;;;;;;1.45;1.35;;;;;;;18.24;58.72;99664.34;6399788;27;20095;-75
2023/04/17 09:54:40;;;;;;;4.27;1.37;;;;;;;18.11;59.31;99668.19;6399356;27;20054;-75
2023/04/17 09:57:42;;;;;;;2.33;1.35;;;;;;;18.03;61.19;99667.28;6381090;27;20047;-75
2023/04/17 10:00:46;;;;;;;2.58;1.60;;;;;;;18.30;59.85;99661.94;6399224;27;20047;-75
2023/04/17 10:03:51;;;;;;;2.67;1.50;;;;;;;17.84;60.38;99655.91;6380326;27;20042;-75
2023/04/17 10:06:56;;;;;;;3.88;1.42;;;;;;;17.29;61.70;99663.84;6399191;27;20066;-75
2023/04/17 10:09:57;;;;;;;1.83;1.60;;;;;;;17.36;61.20;99659.66;6398790;27;20065;-74
2023/04/17 10:13:03;;;;;;;1.90;1.50;;;;;;;17.36;62.11;99667.56;6398923;27;20485;-74
2023/04/17 10:16:05;;;;;;;3.75;2.03;;;;;;;17.53;61.75;99661.47;6380378;27;20054;-74
2023/04/17 10:19:29;;;;;;;2.00;1.60;;;;;;;17.44;62.15;99661.53;6380337;27;20067;-75
2023/04/17 10:22:31;;;;;;;2.22;1.40;;;;;;;17.45;63.08;99661.38;6380163;27;20408;-74
2023/04/17 10:25:31;;;;;;;2.27;1.40;;;;;;;17.38;61.74;99654.19;6379801;27;20057;-75
2023/04/17 10:28:49;;;;;;;2.15;1.70;;;;;;;17.81;60.42;99653.53;6398724;27;20055;-74
2023/04/17 10:32:08;;;;;;;1.98;1.50;;;;;;;17.98;59.75;99657.19;6398634;27;20496;-74
2023/04/17 10:35:15;;;;;;;2.00;1.40;;;;;;;18.12;58.96;99654.03;6398228;27;20050;-75
2023/04/17 10:38:30;;;;;;;2.35;1.42;;;;;;;18.02;59.42;99655.09;6379842;27;20454;-74
2023/04/17 10:41:31;;;;;;;1.73;1.50;;;;;;;17.90;59.93;99654.47;6398353;27;20043;-74
2023/04/17 10:44:33;;;;;;;7.03;1.45;;;;;;;18.06;59.25;99653.81;6379966;27;20058;-74
2023/04/17 10:47:34;;;;;;;1.15;1.05;;;;;;;18.43;58.45;99643.03;6379491;27;20055;-75
2023/04/17 10:50:35;;;;;;;3.10;1.67;;;;;;;18.81;57.40;99640.97;6379918;27;20075;-74
2023/04/17 10:53:41;;;;;;;3.00;1.60;;;;;;;19.22;56.41;99643.81;6379563;27;20051;-74
2023/04/17 10:56:47;;;;;;;4.88;1.48;;;;;;;19.78;56.45;99649.47;6398513;27;20053;-75
2023/04/17 11:00:11;;;;;;;3.47;1.83;;;;;;;19.26;55.75;99641.69;6397894;27;20051;-75
2023/04/17 11:03:15;;;;;;;3.75;1.48;;;;;;;19.00;57.87;99632.00;6379458;27;20057;-75
2023/04/17 11:06:16;;;;;;;2.15;1.60;;;;;;;18.69;59.03;99642.19;6379176;27;20046;-77
2023/04/17 11:09:20;;;;;;;2.00;1.20;;;;;;;18.36;56.75;99641.97;6379486;27;20414;-77
2023/04/17 11:12:20;;;;;;;4.20;1.55;;;;;;;18.18;56.86;99638.53;6379282;27;20049;-77
2023/04/17 11:15:29;;;;;;;2.13;1.63;;;;;;;18.40;57.38;99643.34;6379645;27;20043;-77
2023/04/17 11:18:30;;;;;;;4.95;1.98;;;;;;;18.38;57.03;99633.91;6379020;27;20042;-77
2023/04/17 11:21:32;;;;;;;3.40;2.10;;;;;;;18.71;55.82;99627.03;6379488;27;20042;-77
2023/04/17 11:24:33;;;;;;;3.22;1.50;;;;;;;18.68;54.97;99625.53;6379126;27;20078;-76
2023/04/17 11:27:33;;;;;;;2.00;1.40;;;;;;;18.74;55.46;99621.44;6397998;27;20121;-76
2023/04/17 11:30:41;;;;;;;5.22;1.58;;;;;;;18.85;55.22;99618.53;6397736;27;20130;-74
2023/04/17 11:33:41;;;;;;;2.20;1.67;;;;;;;19.01;55.51;99615.16;6397387;27;20054;-75
2023/04/17 11:36:56;;;;;;;1.67;1.30;;;;;;;18.92;55.71;99616.94;6398378;27;20133;-75
2023/04/17 11:40:04;;;;;;;3.25;1.60;;;;;;;19.58;53.31;99619.81;6384369;27;20133;-75
2023/04/17 11:43:06;;;;;;;2.45;1.42;;;;;;;19.36;52.73;99607.19;6402466;27;20499;-75
2023/04/17 11:46:07;;;;;;;4.53;1.50;;;;;;;19.15;52.73;99608.44;6402392;27;20047;-74
2023/04/17 11:49:08;;;;;;;1.65;1.50;;;;;;;19.57;53.37;99601.44;6384190;27;20055;-74
2023/04/17 11:52:09;;;;;;;2.88;2.15;;;;;;;19.30;52.50;99598.88;6402189;27;20400;-75
2023/04/17 11:55:10;;;;;;;2.80;1.40;;;;;;;19.29;53.71;99594.59;6402395;27;20051;-75
2023/04/17 11:58:13;;;;;;;1.85;1.65;;;;;;;19.41;54.59;99594.28;6402461;27;20053;-75
2023/04/17 12:01:15;;;;;;;2.72;1.52;;;;;;;19.55;54.66;99606.88;6401763;27;20111;-75
2023/04/17 12:04:20;;;;;;;2.05;1.38;;;;;;;19.68;52.66;99594.03;6401589;27;20055;-74
2023/04/17 12:07:23;;;;;;;1.48;1.20;;;;;;;20.45;50.61;99599.00;6383262;27;20469;-75
2023/04/17 12:10:43;;;;;;;2.10;1.58;;;;;;;20.35;51.56;99593.03;6382987;27;20054;-75
2023/04/17 12:13:44;;;;;;;5.00;1.40;;;;;;;20.50;50.58;99593.19;6383091;27;20085;-75
2023/04/17 12:16:49;;;;;;;4.50;1.80;;;;;;;21.00;49.21;99600.03;6383044;27;20399;-74
2023/04/17 12:19:50;;;;;;;3.15;1.70;;;;;;;21.34;50.41;99588.25;6401529;27;20058;-75
2023/04/17 12:22:56;;;;;;;2.65;1.42;;;;;;;21.31;48.48;99594.75;6383028;27;20138;-75
2023/04/17 12:25:57;;;;;;;2.50;1.75;;;;;;;21.12;49.66;99590.66;6382800;27;20445;-75
2023/04/17 12:28:57;;;;;;;4.57;1.50;;;;;;;21.28;49.37;99599.56;6382722;27;20080;-75
2023/04/17 12:31:58;;;;;;;2.57;1.87;;;;;;;21.85;48.24;99595.75;6401426;27;20506;-75
2023/04/17 12:34:59;;;;;;;2.70;1.67;;;;;;;21.75;49.37;99579.22;6401055;27;20107;-75
2023/04/17 12:38:00;;;;;;;2.43;1.50;;;;;;;22.25;48.42;99583.16;6400966;27;20050;-75
2023/04/17 12:41:01;;;;;;;1.73;1.17;;;;;;;21.37;48.61;99587.06;6382451;27;20042;-75
2023/04/17 12:44:04;;;;;;;6.30;1.97;;;;;;;20.38;51.20;99590.03;6382317;27;20471;-74
2023/04/17 12:47:05;;;;;;;1.85;1.42;;;;;;;20.11;51.95;99596.53;6382355;27;20484;-75
2023/04/17 12:50:06;;;;;;;2.20;1.47;;;;;;;19.90;52.80;99575.84;6400064;27;20049;-75
2023/04/17 12:53:15;;;;;;;2.13;1.35;;;;;;;20.81;50.07;99580.03;6382380;27;20057;-75
2023/04/17 12:56:15;;;;;;;3.08;1.50;;;;;;;21.31;48.41;99572.66;6382023;27;20058;-75
2023/04/17 12:59:21;;;;;;;1.53;1.20;;;;;;;21.80;48.64;99568.88;6400526;27;20055;-75
2023/04/17 13:02:22;;;;;;;3.25;1.58;;;;;;;21.61;48.58;99575.50;6400110;27;20134;-75
2023/04/17 13:05:23;;;;;;;2.53;1.37;;;;;;;21.55;50.36;99573.56;6382055;27;20046;-74
2023/04/17 13:08:24;;;;;;;1.50;0.93;;;;;;;21.42;47.20;99577.63;6400331;27;20092;-75
2023/04/17 13:11:25;;;;;;;2.63;1.20;;;;;;;20.92;48.95;99577.00;6381451;27;20091;-75
2023/04/17 13:14:26;;;;;;;2.22;1.50;;;;;;;20.01;51.92;99569.41;6382112;27;20416;-74
2023/04/17 13:17:27;;;;;;;1.47;1.20;;;;;;;20.18;51.94;99568.41;6381640;27;20051;-74
2023/04/17 13:20:28;;;;;;;1.30;1.13;;;;;;;19.89;53.26;99567.09;6381720;27;20047;-75
2023/04/17 13:23:29;;;;;;;2.38;1.25;;;;;;;20.78;53.20;99564.47;6381409;27;20423;-75
2023/04/17 13:26:30;;;;;;;2.28;1.23;;;;;;;20.85;50.03;99559.31;6381381;27;20047;-75
2023/04/17 13:29:33;;;;;;;1.52;1.08;;;;;;;21.02;50.55;99563.53;6399813;27;20169;-75
2023/04/17 13:32:35;;;;;;;1.63;1.02;;;;;;;21.06;50.50;99566.66;6381339;27;20065;-75
2023/04/17 13:35:36;;;;;;;1.07;0.97;;;;;;;20.90;51.47;99560.44;6381045;27;20488;-75
2023/04/17 13:38:37;;;;;;;1.53;1.20;;;;;;;20.91;51.80;99566.56;6399465;27;20043;-75
2023/04/17 13:41:37;;;;;;;3.67;1.73;;;;;;;21.61;50.65;99565.72;6381017;27;20043;-75
2023/04/17 13:44:38;;;;;;;2.43;1.37;;;;;;;21.18;49.40;99559.97;6380838;27;20082;-74
2023/04/17 13:47:39;;;;;;;1.50;1.17;;;;;;;21.12;51.92;99564.13;6380926;27;20046;-75
2023/04/17 13:50:41;;;;;;;2.00;1.30;;;;;;;21.22;50.56;99561.28;6399172;27;20050;-75
2023/04/17 13:53:41;;;;;;;;;;;;;;;21.12;51.31;99564.13;6399818;27;20043;-74
2023/04/17 13:56:44;;;;;;;1.40;1.23;;;;;;;20.63;50.58;99566.16;6380590;27;19930;-77
2023/04/17 13:59:45;;;;;;;3.42;2.08;;;;;;;20.77;49.15;99560.16;6379905;27;20095;-76
2023/04/17 14:02:49;;;;;;;2.75;1.40;;;;;;;21.00;49.71;99556.75;6398334;27;20060;-77
2023/04/17 14:05:49;;;;;;;2.72;1.38;;;;;;;20.96;48.43;99555.44;6398936;27;20080;-77
2023/04/17 14:08:50;;;;;;;4.80;1.50;;;;;;;20.99;49.88;99555.94;6398848;27;20051;-77
2023/04/17 14:11:51;;;;;;;1.90;1.23;;;;;;;20.83;49.73;99543.56;6380557;27;20473;-76
2023/04/17 14:14:52;;;;;;;1.23;1.10;;;;;;;21.03;48.58;99543.16;6398745;27;20419;-77
2023/04/17 14:17:52;;;;;;;2.23;1.20;;;;;;;21.04;47.44;99542.16;6398569;27;20095;-77
2023/04/17 14:20:54;;;;;;;2.00;1.17;;;;;;;20.83;45.35;99551.50;6379963;27;20469;-76